Time;durP1;ratioP1;P1;durP2;ratioP2;P2;SDS_P1;SDS_P2;PMS_P1;PMS_P2;Temp;Humidity;BMP_temperature;BMP_pressure;BME280_temperature;BME280_humidity;BME280_pressure;Samples;Min_cycle;Max_cycle;Signal;HPM_P1;HPM_P2
2023/07/12 00:03:52;;;;;;;1999.90;999.90;;;23.30;99.90;;;;;;6712913;88;20228;-76
2023/07/12 00:13:54;;;;;;;1999.90;999.90;;;23.00;99.90;;;;;;6720431;88;20741;-77
2023/07/12 00:23:58;;;;;;;1999.90;999.90;;;22.60;99.90;;;;;;6704472;88;20244;-76
2023/07/12 00:33:58;;;;;;;1999.90;999.90;;;22.40;99.90;;;;;;6727265;88;20178;-78
2023/07/12 00:44:05;;;;;;;1999.90;999.90;;;22.20;99.90;;;;;;6719154;88;20616;-78
2023/07/12 00:54:11;;;;;;;1999.90;999.90;;;22.10;99.90;;;;;;6720461;88;20232;-79
2023/07/12 01:04:16;;;;;;;1999.90;999.90;;;22.20;99.90;;;;;;6720039;88;20294;-79
2023/07/12 01:14:18;;;;;;;1999.90;999.90;;;22.10;99.90;;;;;;6719398;88;20229;-80
2023/07/12 01:24:19;;;;;;;1999.90;999.90;;;22.00;99.90;;;;;;6723351;88;20197;-81
2023/07/12 01:34:19;;;;;;;1999.90;999.90;;;21.90;99.90;;;;;;6718969;88;20595;-78
2023/07/12 01:44:20;;;;;;;1999.90;999.90;;;21.80;99.90;;;;;;6731669;88;20193;-78
2023/07/12 01:54:20;;;;;;;1999.90;999.90;;;21.70;99.90;;;;;;6724759;88;20491;-79
2023/07/12 02:04:21;;;;;;;1999.90;999.90;;;21.60;99.90;;;;;;6718537;88;20355;-79
2023/07/12 02:14:21;;;;;;;1999.90;999.90;;;21.40;99.90;;;;;;6720149;88;20221;-79
2023/07/12 02:24:22;;;;;;;1999.90;999.90;;;21.30;99.90;;;;;;6722452;88;20206;-79
2023/07/12 02:34:23;;;;;;;1999.90;999.90;;;21.30;99.90;;;;;;6720768;88;20190;-80
2023/07/12 02:44:24;;;;;;;1999.90;999.90;;;21.30;99.90;;;;;;6719018;88;20619;-80
2023/07/12 02:54:24;;;;;;;1999.90;999.90;;;21.30;99.90;;;;;;6720121;88;20197;-78
2023/07/12 03:04:25;;;;;;;1999.90;999.90;;;21.30;99.90;;;;;;6718052;88;20214;-81
2023/07/12 03:14:25;;;;;;;1999.90;999.90;;;21.30;99.90;;;;;;6717623;88;20202;-77
2023/07/12 03:24:26;;;;;;;1999.90;999.90;;;20.80;99.90;;;;;;6713375;88;20193;-78
2023/07/12 03:34:26;;;;;;;1999.90;999.90;;;20.10;99.90;;;;;;6711610;88;20668;-76
2023/07/12 03:44:27;;;;;;;1999.90;999.90;;;20.00;99.90;;;;;;6715330;88;21074;-75
2023/07/12 03:54:27;;;;;;;1999.90;999.90;;;19.20;99.90;;;;;;6714381;88;20673;-75
2023/07/12 04:04:28;;;;;;;1999.90;999.90;;;19.00;99.90;;;;;;6714976;88;20194;-76
2023/07/12 04:14:28;;;;;;;1999.90;999.90;;;18.90;99.90;;;;;;6713607;88;20188;-75
2023/07/12 04:24:29;;;;;;;1999.90;999.90;;;18.70;99.90;;;;;;6721125;88;20206;-76
2023/07/12 04:34:29;;;;;;;1999.90;999.90;;;18.60;99.90;;;;;;6720456;77;20210;-76
2023/07/12 04:44:30;;;;;;;1999.90;999.90;;;18.40;99.90;;;;;;6705722;88;20238;-76
2023/07/12 04:54:33;;;;;;;1999.90;999.90;;;18.20;99.90;;;;;;6697320;88;20678;-78
2023/07/12 05:04:35;;;;;;;1999.90;999.90;;;18.30;99.90;;;;;;6699240;88;20214;-77
2023/07/12 05:14:35;;;;;;;1999.90;999.90;;;18.60;99.90;;;;;;6702920;88;20194;-77
2023/07/12 05:24:36;;;;;;;1999.90;999.90;;;18.90;99.90;;;;;;6697747;88;20179;-78
2023/07/12 05:34:37;;;;;;;1999.90;999.90;;;18.90;99.90;;;;;;6699429;88;20247;-76
2023/07/12 05:44:37;;;;;;;1999.90;999.90;;;19.10;99.90;;;;;;6702231;88;20203;-76
2023/07/12 05:54:38;;;;;;;1999.90;999.90;;;19.10;99.90;;;;;;6698582;88;20333;-76
2023/07/12 06:04:38;;;;;;;1999.90;999.90;;;19.50;99.90;;;;;;6694315;88;20285;-76
2023/07/12 06:14:39;;;;;;;1999.90;999.90;;;19.80;99.90;;;;;;6699161;88;20619;-75
2023/07/12 06:24:40;;;;;;;1999.90;999.90;;;20.10;99.90;;;;;;6696743;88;20535;-76
2023/07/12 06:34:40;;;;;;;1999.90;999.90;;;20.30;99.90;;;;;;6705875;88;20198;-76
2023/07/12 06:44:41;;;;;;;1999.90;999.90;;;20.50;99.90;;;;;;6701101;88;20285;-74
2023/07/12 06:54:41;;;;;;;1999.90;999.90;;;20.20;99.90;;;;;;6692699;88;20404;-74
2023/07/12 07:04:42;;;;;;;1999.90;999.90;;;20.40;99.90;;;;;;6697230;88;20231;-75
2023/07/12 07:14:42;;;;;;;1999.90;999.90;;;20.30;99.90;;;;;;6691515;88;20694;-75
2023/07/12 07:24:44;;;;;;;1999.90;999.90;;;20.60;99.90;;;;;;6693114;88;20202;-74
2023/07/12 07:34:44;;;;;;;1999.90;999.90;;;21.00;99.90;;;;;;6692850;88;20207;-74
2023/07/12 07:44:44;;;;;;;1999.90;999.90;;;21.00;99.90;;;;;;6698928;88;21195;-74
2023/07/12 07:54:45;;;;;;;1999.90;999.90;;;20.90;99.90;;;;;;6693647;88;20244;-75
2023/07/12 08:04:46;;;;;;;1999.90;999.90;;;20.90;99.90;;;;;;6692697;88;20203;-74
2023/07/12 08:14:46;;;;;;;1999.90;999.90;;;21.10;99.90;;;;;;6697874;88;20209;-75
2023/07/12 08:24:47;;;;;;;1999.90;999.90;;;21.20;99.90;;;;;;6691085;88;20199;-74
2023/07/12 08:34:47;;;;;;;1999.90;999.90;;;21.30;99.90;;;;;;6685259;88;20272;-75
2023/07/12 08:44:48;;;;;;;1999.90;999.90;;;21.60;99.90;;;;;;6679430;88;21100;-74
2023/07/12 08:54:50;;;;;;;1999.90;999.90;;;22.30;99.90;;;;;;6680152;88;20274;-76
2023/07/12 09:04:56;;;;;;;1999.90;999.90;;;22.20;99.90;;;;;;6675249;88;20188;-74
2023/07/12 09:15:10;;;;;;;1999.90;999.90;;;22.40;99.90;;;;;;6677347;88;20682;-75
2023/07/12 09:25:18;;;;;;;;;;;22.30;99.90;;;;;;6678617;88;20602;-75
2023/07/12 09:35:24;;;;;;;1999.90;999.90;;;22.50;99.90;;;;;;6691900;88;20072;-76
2023/07/12 09:45:30;;;;;;;1999.90;999.90;;;22.50;99.90;;;;;;6694905;88;20212;-76
2023/07/12 09:55:54;;;;;;;1999.90;999.90;;;22.70;99.90;;;;;;6699194;88;20194;-75
2023/07/12 10:06:09;;;;;;;1999.90;999.90;;;23.00;99.90;;;;;;6696173;88;20263;-76
2023/07/12 10:16:25;;;;;;;1999.90;999.90;;;23.60;99.90;;;;;;6694136;88;20239;-76
2023/07/12 10:26:26;;;;;;;1999.90;999.90;;;25.00;99.90;;;;;;6697545;88;20175;-75
2023/07/12 10:47:33;;;;;;;1999.90;999.90;;;26.60;97.20;;;;;;6715547;88;20791;-79
2023/07/12 10:57:46;;;;;;;1999.90;999.90;;;26.90;95.20;;;;;;6718070;88;20260;-79
2023/07/12 11:07:46;;;;;;;1999.90;999.90;;;27.60;93.90;;;;;;6722073;88;20173;-80
2023/07/12 11:17:48;;;;;;;1999.90;999.90;;;27.10;93.00;;;;;;6736656;88;20302;-82
2023/07/12 11:28:04;;;;;;;1999.90;999.90;;;27.20;91.80;;;;;;6734272;88;20208;-78
2023/07/12 11:38:13;;;;;;;1999.90;999.90;;;27.20;92.00;;;;;;6723715;88;20781;-79
2023/07/12 11:48:14;;;;;;;1999.90;999.90;;;27.10;92.10;;;;;;6727407;88;20195;-79
2023/07/12 11:58:16;;;;;;;1999.90;999.90;;;27.50;89.50;;;;;;6712903;88;20197;-78
2023/07/12 12:08:23;;;;;;;1999.90;999.90;;;28.20;85.50;;;;;;6722949;88;20321;-78
2023/07/12 12:18:24;;;;;;;1999.90;999.90;;;28.70;82.30;;;;;;6718476;88;21057;-78
2023/07/12 12:28:31;;;;;;;1999.90;999.90;;;28.20;82.70;;;;;;6722108;88;20206;-78
2023/07/12 12:38:36;;;;;;;1999.90;999.90;;;27.90;80.50;;;;;;6728569;88;20198;-78
2023/07/12 12:48:36;;;;;;;1999.90;999.90;;;28.20;81.60;;;;;;6722457;88;20650;-79
2023/07/12 12:58:37;;;;;;;1999.90;999.90;;;28.90;78.00;;;;;;6711890;88;20277;-77
2023/07/12 13:08:38;;;;;;;1999.90;999.90;;;28.60;77.70;;;;;;6721432;88;20190;-79
2023/07/12 13:18:38;;;;;;;1999.90;999.90;;;29.10;78.00;;;;;;6722662;88;20190;-79
2023/07/12 13:28:39;;;;;;;1999.90;999.90;;;29.00;76.40;;;;;;6723546;88;20222;-79
2023/07/12 13:38:40;;;;;;;1999.90;999.90;;;29.00;74.20;;;;;;6716515;88;20186;-78
2023/07/12 13:48:42;;;;;;;1999.90;999.90;;;28.90;75.20;;;;;;6703252;88;20183;-78
2023/07/12 13:58:43;;;;;;;1999.90;999.90;;;28.30;75.90;;;;;;6704058;88;20368;-79
2023/07/12 14:08:43;;;;;;;1999.90;999.90;;;29.40;76.10;;;;;;6704356;88;20198;-79
2023/07/12 14:18:44;;;;;;;1999.90;999.90;;;28.70;75.30;;;;;;6703738;88;20335;-78
2023/07/12 14:28:47;;;;;;;1999.90;999.90;;;29.00;73.40;;;;;;6704847;88;20304;-78
2023/07/12 14:38:48;;;;;;;1999.90;999.90;;;29.20;73.80;;;;;;6708695;88;20187;-78
2023/07/12 14:48:49;;;;;;;1999.90;999.90;;;27.60;74.70;;;;;;6710172;88;20199;-80
2023/07/12 14:58:49;;;;;;;1999.90;999.90;;;27.60;74.40;;;;;;6718128;88;20598;-79
2023/07/12 15:08:50;;;;;;;1999.90;999.90;;;28.10;73.70;;;;;;6711789;88;20292;-79
2023/07/12 15:18:52;;;;;;;1999.90;999.90;;;28.30;73.90;;;;;;6722233;88;20758;-79
2023/07/12 15:28:52;;;;;;;1999.90;999.90;;;28.60;73.70;;;;;;6721242;88;21035;-79
2023/07/12 15:38:53;;;;;;;1999.90;999.90;;;28.40;72.90;;;;;;6713366;88;20194;-77
2023/07/12 15:48:55;;;;;;;1999.90;999.90;;;27.90;73.60;;;;;;6717230;88;20214;-77
2023/07/12 15:58:56;;;;;;;;;;;27.90;72.70;;;;;;6712663;88;20174;-77
2023/07/12 16:08:57;;;;;;;1999.90;999.90;;;27.70;73.20;;;;;;6707547;88;20105;-78
2023/07/12 16:18:57;;;;;;;1999.90;999.90;;;28.40;73.00;;;;;;6713760;88;20719;-79
2023/07/12 16:28:59;;;;;;;1999.90;999.90;;;27.60;72.40;;;;;;6716962;88;20204;-78
2023/07/12 16:39:00;;;;;;;1999.90;999.90;;;27.60;72.60;;;;;;6713182;88;20327;-78
2023/07/12 16:49:00;;;;;;;1999.90;999.90;;;27.60;72.30;;;;;;6702451;88;20264;-78
2023/07/12 16:59:01;;;;;;;1999.90;999.90;;;27.20;72.40;;;;;;6694882;88;20269;-79
2023/07/12 17:09:17;;;;;;;1999.90;999.90;;;26.80;73.80;;;;;;6685919;77;20192;-77
2023/07/12 17:19:20;;;;;;;1999.90;999.90;;;26.50;73.40;;;;;;6664079;89;20191;-78
2023/07/12 17:29:21;;;;;;;1999.90;999.90;;;26.00;73.70;;;;;;6663042;89;20195;-76
2023/07/12 17:39:23;;;;;;;1999.90;999.90;;;25.90;74.70;;;;;;6664039;88;20208;-75
2023/07/12 17:49:24;;;;;;;1999.90;999.90;;;25.60;75.10;;;;;;6664393;88;20249;-75
2023/07/12 17:59:24;;;;;;;1999.90;999.90;;;25.30;76.20;;;;;;6661578;89;20713;-76
2023/07/12 18:09:25;;;;;;;1999.90;999.90;;;24.90;76.00;;;;;;6662459;88;20736;-76
2023/07/12 18:19:26;;;;;;;1999.90;999.90;;;24.70;76.60;;;;;;6660057;89;20322;-77
2023/07/12 18:29:26;;;;;;;1999.90;999.90;;;24.60;76.70;;;;;;6658826;88;20202;-77
2023/07/12 18:39:27;;;;;;;1999.90;999.90;;;24.40;77.10;;;;;;6661102;89;20210;-77
2023/07/12 18:49:28;;;;;;;1999.90;999.90;;;24.20;76.50;;;;;;6646764;89;20205;-76
2023/07/12 18:59:29;;;;;;;1999.90;999.90;;;24.10;77.00;;;;;;6658286;88;20176;-77
2023/07/12 19:09:31;;;;;;;1999.90;999.90;;;23.90;76.00;;;;;;6658691;88;20238;-76
2023/07/12 19:19:32;;;;;;;1999.90;999.90;;;23.70;77.30;;;;;;6656523;89;21365;-76
2023/07/12 19:29:32;;;;;;;1999.90;999.90;;;23.40;79.90;;;;;;6656674;89;20324;-76
2023/07/12 19:39:33;;;;;;;1999.90;999.90;;;23.20;82.30;;;;;;6662597;89;20255;-76
2023/07/12 19:49:34;;;;;;;1999.90;999.90;;;22.90;83.50;;;;;;6656200;89;20773;-75
2023/07/12 19:59:36;;;;;;;1999.90;999.90;;;22.70;83.90;;;;;;6655453;88;20224;-75
2023/07/12 20:09:36;;;;;;;1999.90;999.90;;;22.50;84.50;;;;;;6656187;88;20258;-76
2023/07/12 20:19:37;;;;;;;1999.90;999.90;;;22.40;84.90;;;;;;6667741;89;20199;-77
2023/07/12 20:29:38;;;;;;;1999.90;999.90;;;22.30;85.40;;;;;;6666999;89;20183;-77
2023/07/12 20:39:39;;;;;;;1999.90;999.90;;;22.20;85.20;;;;;;6664157;88;20541;-77
2023/07/12 20:49:47;;;;;;;1999.90;999.90;;;22.20;84.60;;;;;;6659224;89;20312;-78
2023/07/12 20:59:47;;;;;;;1999.90;999.90;;;22.20;85.10;;;;;;6672776;88;20195;-78
2023/07/12 21:09:48;;;;;;;1999.90;999.90;;;22.00;85.60;;;;;;6677408;88;20266;-79
2023/07/12 21:19:49;;;;;;;1999.90;999.90;;;21.80;85.50;;;;;;6672130;88;20217;-83
2023/07/12 21:29:51;;;;;;;1999.90;999.90;;;21.70;86.00;;;;;;6670652;88;20234;-78
2023/07/12 21:39:51;;;;;;;1999.90;999.90;;;21.50;87.00;;;;;;6670119;88;20228;-78
2023/07/12 21:49:52;;;;;;;1999.90;999.90;;;21.20;88.30;;;;;;6666850;88;20198;-78
2023/07/12 21:59:52;;;;;;;1999.90;999.90;;;21.00;89.30;;;;;;6667792;88;20225;-78
2023/07/12 22:09:53;;;;;;;1999.90;999.90;;;20.60;90.10;;;;;;6667526;89;20806;-78
2023/07/12 22:19:53;;;;;;;1999.90;999.90;;;20.40;89.40;;;;;;6666328;89;20268;-77
2023/07/12 22:29:56;;;;;;;1999.90;999.90;;;20.10;90.20;;;;;;6677024;88;21076;-78
2023/07/12 22:39:56;;;;;;;1999.90;999.90;;;19.80;89.80;;;;;;6673292;88;20198;-77
2023/07/12 22:49:57;;;;;;;1999.90;999.90;;;19.70;90.10;;;;;;6667012;88;20205;-77
2023/07/12 22:59:58;;;;;;;1999.90;999.90;;;19.50;90.40;;;;;;6667991;88;20229;-78
2023/07/12 23:09:59;;;;;;;1999.90;999.90;;;19.30;90.90;;;;;;6666043;88;20204;-78
2023/07/12 23:19:59;;;;;;;1999.90;999.90;;;19.20;91.00;;;;;;6665338;88;20219;-78
2023/07/12 23:30:01;;;;;;;1999.90;999.90;;;19.00;92.10;;;;;;6664680;89;20239;-78
2023/07/12 23:40:05;;;;;;;1999.90;999.90;;;18.80;92.10;;;;;;6667086;89;20188;-77
2023/07/12 23:50:06;;;;;;;1999.90;999.90;;;18.70;92.90;;;;;;6669614;88;20872;-77
